Time;durP1;ratioP1;P1;durP2;ratioP2;P2;SDS_P1;SDS_P2;PMS_P1;PMS_P2;Temp;Humidity;BMP_temperature;BMP_pressure;BME280_temperature;BME280_humidity;BME280_pressure;Samples;Min_cycle;Max_cycle;Signal;HPM_P1;HPM_P2
2022/08/27 00:01:08;;;;;;;11.50;3.93;;;;;;;;;;5094069;28;20200;-87
2022/08/27 00:03:35;;;;;;;7.93;4.40;;;;;;;;;;5094264;28;20590;-86
2022/08/27 00:06:02;;;;;;;6.17;4.43;;;;;;;;;;5094031;28;20692;-87
2022/08/27 00:08:29;;;;;;;10.23;4.23;;;;;;;;;;5106056;28;20227;-87
2022/08/27 00:10:56;;;;;;;5.30;4.23;;;;;;;;;;5081169;28;20197;-87
2022/08/27 00:13:25;;;;;;;7.67;3.73;;;;;;;;;;5094473;28;20229;-87
2022/08/27 00:15:51;;;;;;;9.07;4.20;;;;;;;;;;5094178;28;20666;-87
2022/08/27 00:18:19;;;;;;;7.80;3.87;;;;;;;;;;5085118;28;20261;-87
2022/08/27 00:20:46;;;;;;;8.07;3.53;;;;;;;;;;5099791;28;20227;-85
2022/08/27 00:23:12;;;;;;;8.43;4.10;;;;;;;;;;5106670;28;20204;-87
2022/08/27 00:25:40;;;;;;;11.20;4.10;;;;;;;;;;5093548;28;20258;-87
2022/08/27 00:28:06;;;;;;;9.27;4.00;;;;;;;;;;5094163;28;20224;-87
2022/08/27 00:30:35;;;;;;;11.67;4.60;;;;;;;;;;5093511;28;20200;-86
2022/08/27 00:33:03;;;;;;;7.33;4.37;;;;;;;;;;5103949;28;20675;-87
2022/08/27 00:35:29;;;;;;;8.10;4.20;;;;;;;;;;5083619;28;20200;-87
2022/08/27 00:37:56;;;;;;;14.67;4.30;;;;;;;;;;5107810;28;20203;-87
2022/08/27 00:40:23;;;;;;;6.60;4.00;;;;;;;;;;5093441;28;20204;-87
2022/08/27 00:42:50;;;;;;;8.27;4.50;;;;;;;;;;5092268;28;20200;-86
2022/08/27 00:45:19;;;;;;;4.47;3.83;;;;;;;;;;5093214;28;20208;-87
2022/08/27 00:47:54;;;;;;;10.37;4.53;;;;;;;;;;5093520;28;20220;-87
2022/08/27 00:50:27;;;;;;;9.87;4.63;;;;;;;;;;5079740;28;20303;-87
2022/08/27 00:52:57;;;;;;;8.07;4.73;;;;;;;;;;5093570;28;20590;-87
2022/08/27 00:55:27;;;;;;;8.30;3.67;;;;;;;;;;5089803;28;20235;-87
2022/08/27 00:58:01;;;;;;;9.67;4.37;;;;;;;;;;5093644;28;20201;-87
2022/08/27 01:00:27;;;;;;;8.50;4.00;;;;;;;;;;5106859;28;20694;-86
2022/08/27 01:02:56;;;;;;;12.67;4.27;;;;;;;;;;5092970;28;20196;-87
2022/08/27 01:05:25;;;;;;;21.07;5.23;;;;;;;;;;5093281;28;20205;-87
2022/08/27 01:07:55;;;;;;;7.40;4.60;;;;;;;;;;5093011;28;20227;-87
2022/08/27 01:10:25;;;;;;;6.07;4.13;;;;;;;;;;5092716;28;20212;-87
2022/08/27 01:12:53;;;;;;;7.60;3.90;;;;;;;;;;5093114;28;20228;-87
2022/08/27 01:15:21;;;;;;;13.50;4.23;;;;;;;;;;5092579;28;20197;-87
2022/08/27 01:17:48;;;;;;;12.93;4.00;;;;;;;;;;5107405;28;20199;-88
2022/08/27 01:20:19;;;;;;;9.27;4.80;;;;;;;;;;5104017;28;20616;-87
2022/08/27 01:22:53;;;;;;;10.97;4.77;;;;;;;;;;5094780;28;20196;-87
2022/08/27 01:25:22;;;;;;;14.00;4.67;;;;;;;;;;5092870;28;20678;-86
2022/08/27 01:27:49;;;;;;;5.37;3.93;;;;;;;;;;5092353;28;20318;-87
2022/08/27 01:30:18;;;;;;;6.17;4.47;;;;;;;;;;5092157;28;20266;-86
2022/08/27 01:32:46;;;;;;;9.80;4.10;;;;;;;;;;5092597;28;20212;-86
2022/08/27 01:35:14;;;;;;;5.13;4.03;;;;;;;;;;5092928;28;20702;-87
2022/08/27 01:37:41;;;;;;;8.50;4.47;;;;;;;;;;5092777;28;20265;-87
2022/08/27 01:40:10;;;;;;;12.07;5.10;;;;;;;;;;5091895;28;20200;-87
2022/08/27 01:42:40;;;;;;;7.70;4.10;;;;;;;;;;5092345;28;20205;-86
2022/08/27 01:45:09;;;;;;;7.83;4.77;;;;;;;;;;5097780;28;20203;-86
2022/08/27 01:47:37;;;;;;;11.80;4.50;;;;;;;;;;5100104;28;20228;-86
2022/08/27 01:50:09;;;;;;;6.20;3.80;;;;;;;;;;5091950;28;20214;-86
2022/08/27 01:52:37;;;;;;;10.40;4.27;;;;;;;;;;5092109;28;20563;-85
2022/08/27 01:55:05;;;;;;;11.13;4.43;;;;;;;;;;5091967;28;20263;-87
2022/08/27 01:57:33;;;;;;;9.63;4.40;;;;;;;;;;5078142;28;20232;-86
2022/08/27 02:00:02;;;;;;;9.67;4.00;;;;;;;;;;5091936;28;20208;-86
2022/08/27 02:02:29;;;;;;;12.47;4.17;;;;;;;;;;5091910;28;20683;-86
2022/08/27 02:04:55;;;;;;;12.23;4.13;;;;;;;;;;5091833;28;20232;-86
2022/08/27 02:07:22;;;;;;;9.93;4.33;;;;;;;;;;5091696;28;20224;-86
2022/08/27 02:09:49;;;;;;;10.47;4.17;;;;;;;;;;5091679;28;20203;-87
2022/08/27 02:12:16;;;;;;;7.43;4.73;;;;;;;;;;5091520;28;20682;-87
2022/08/27 02:14:42;;;;;;;10.33;5.23;;;;;;;;;;5091866;28;20197;-87
2022/08/27 02:17:11;;;;;;;7.43;4.53;;;;;;;;;;5091830;28;20628;-87
2022/08/27 02:19:38;;;;;;;9.40;3.90;;;;;;;;;;5097310;28;20627;-86
2022/08/27 02:22:05;;;;;;;8.47;4.57;;;;;;;;;;5099882;28;20230;-87
2022/08/27 02:24:32;;;;;;;9.37;4.57;;;;;;;;;;5091596;28;20208;-86
2022/08/27 02:26:59;;;;;;;13.63;4.97;;;;;;;;;;5091702;28;20215;-85
2022/08/27 02:29:26;;;;;;;7.70;4.40;;;;;;;;;;5091363;28;20605;-86
2022/08/27 02:31:53;;;;;;;10.80;4.87;;;;;;;;;;5091560;28;20200;-85
2022/08/27 02:34:22;;;;;;;13.50;5.13;;;;;;;;;;5091933;28;20705;-86
2022/08/27 02:36:48;;;;;;;8.50;4.60;;;;;;;;;;5104692;28;20201;-86
2022/08/27 02:39:15;;;;;;;6.37;5.03;;;;;;;;;;5105040;28;20256;-87
2022/08/27 02:41:42;;;;;;;6.87;4.70;;;;;;;;;;5091722;28;20203;-86
2022/08/27 02:44:10;;;;;;;9.67;4.67;;;;;;;;;;5091277;28;20578;-86
2022/08/27 02:46:37;;;;;;;9.40;4.90;;;;;;;;;;5090944;28;20723;-86
2022/08/27 02:49:04;;;;;;;12.20;4.80;;;;;;;;;;5091434;28;20235;-86
2022/08/27 02:51:32;;;;;;;10.97;4.83;;;;;;;;;;5090932;28;20204;-86
2022/08/27 02:54:00;;;;;;;11.97;4.60;;;;;;;;;;5091601;28;20269;-86
2022/08/27 02:56:26;;;;;;;15.03;4.60;;;;;;;;;;5091383;28;20228;-86
2022/08/27 02:58:53;;;;;;;6.53;4.60;;;;;;;;;;5090699;28;20690;-86
2022/08/27 03:01:21;;;;;;;9.97;5.13;;;;;;;;;;5090921;28;20196;-86
2022/08/27 03:03:47;;;;;;;12.80;4.63;;;;;;;;;;5091374;28;20200;-87
2022/08/27 03:06:14;;;;;;;7.20;4.03;;;;;;;;;;5089999;28;20196;-86
2022/08/27 03:08:42;;;;;;;7.63;4.00;;;;;;;;;;5091226;28;20228;-86
2022/08/27 03:11:09;;;;;;;7.80;4.00;;;;;;;;;;5090450;28;20215;-86
2022/08/27 03:13:37;;;;;;;8.33;4.73;;;;;;;;;;5090837;28;20204;-86
2022/08/27 03:16:04;;;;;;;16.17;4.70;;;;;;;;;;5090608;28;20292;-87
2022/08/27 03:18:31;;;;;;;6.70;4.23;;;;;;;;;;5101224;28;20211;-87
2022/08/27 03:20:59;;;;;;;7.50;4.83;;;;;;;;;;5093960;28;20203;-86
2022/08/27 03:23:28;;;;;;;8.97;4.67;;;;;;;;;;5090990;28;20279;-86
2022/08/27 03:25:58;;;;;;;7.03;4.27;;;;;;;;;;5090385;28;20204;-86
2022/08/27 03:28:28;;;;;;;7.27;4.70;;;;;;;;;;5090052;28;20292;-85
2022/08/27 03:30:57;;;;;;;10.50;4.50;;;;;;;;;;5090128;28;20200;-86
2022/08/27 03:33:25;;;;;;;10.00;4.90;;;;;;;;;;5090915;28;20745;-87
2022/08/27 03:35:52;;;;;;;11.93;5.63;;;;;;;;;;5090244;28;20208;-85
2022/08/27 03:38:19;;;;;;;9.53;4.30;;;;;;;;;;5095733;28;20199;-86
2022/08/27 03:40:46;;;;;;;6.27;4.40;;;;;;;;;;5098793;28;20204;-87
2022/08/27 03:43:14;;;;;;;8.27;4.50;;;;;;;;;;5090126;28;20204;-87
2022/08/27 03:45:43;;;;;;;10.83;4.70;;;;;;;;;;5090474;28;20204;-87
2022/08/27 03:48:11;;;;;;;7.87;5.40;;;;;;;;;;5105070;28;20269;-86
2022/08/27 03:50:38;;;;;;;8.77;4.83;;;;;;;;;;5090003;28;20670;-88
2022/08/27 03:53:05;;;;;;;7.10;4.30;;;;;;;;;;5090524;28;20232;-86
2022/08/27 03:55:32;;;;;;;8.77;4.57;;;;;;;;;;5090303;28;20216;-85
2022/08/27 03:57:58;;;;;;;9.60;3.97;;;;;;;;;;5087818;28;20200;-81
2022/08/27 04:00:27;;;;;;;16.33;5.03;;;;;;;;;;5089651;28;20193;-79
2022/08/27 04:02:54;;;;;;;11.30;4.53;;;;;;;;;;5089757;28;20200;-81
2022/08/27 04:05:22;;;;;;;13.60;5.20;;;;;;;;;;5089833;28;20236;-82
2022/08/27 04:07:49;;;;;;;7.30;4.30;;;;;;;;;;5098753;28;20203;-80
2022/08/27 04:10:17;;;;;;;7.43;5.23;;;;;;;;;;5094471;28;20201;-80
2022/08/27 04:12:44;;;;;;;5.10;4.60;;;;;;;;;;5089714;28;20196;-80
2022/08/27 04:15:12;;;;;;;11.13;4.30;;;;;;;;;;5090105;28;20208;-79
2022/08/27 04:17:43;;;;;;;10.30;5.00;;;;;;;;;;5091059;28;20196;-80
2022/08/27 04:20:11;;;;;;;12.63;4.80;;;;;;;;;;5093590;28;20211;-79
2022/08/27 04:22:38;;;;;;;10.37;4.47;;;;;;;;;;5093657;28;20292;-81
2022/08/27 04:25:06;;;;;;;11.87;4.87;;;;;;;;;;5093242;28;20742;-79
2022/08/27 04:27:33;;;;;;;5.67;5.17;;;;;;;;;;5093477;28;20257;-79
2022/08/27 04:30:01;;;;;;;11.87;5.43;;;;;;;;;;5093193;28;20311;-80
2022/08/27 04:32:29;;;;;;;10.53;4.73;;;;;;;;;;5093239;28;20204;-80
2022/08/27 04:34:58;;;;;;;7.70;4.27;;;;;;;;;;5093026;28;20208;-79
2022/08/27 04:37:26;;;;;;;9.13;4.53;;;;;;;;;;5092646;28;20204;-79
2022/08/27 04:39:53;;;;;;;10.07;4.67;;;;;;;;;;5093146;28;20200;-80
2022/08/27 04:42:20;;;;;;;7.23;4.30;;;;;;;;;;5093067;28;20258;-78
2022/08/27 04:44:47;;;;;;;8.47;4.30;;;;;;;;;;5092509;28;20679;-79
2022/08/27 04:47:15;;;;;;;11.27;4.37;;;;;;;;;;5091331;28;20208;-79
2022/08/27 04:49:42;;;;;;;8.93;4.57;;;;;;;;;;5083764;28;20219;-79
2022/08/27 04:52:11;;;;;;;7.00;5.23;;;;;;;;;;5091922;28;20203;-80
2022/08/27 04:54:37;;;;;;;7.67;4.40;;;;;;;;;;5093180;28;20236;-78
2022/08/27 04:57:06;;;;;;;8.97;3.90;;;;;;;;;;5092719;28;20269;-78
2022/08/27 04:59:33;;;;;;;8.67;5.27;;;;;;;;;;5091906;28;20670;-79
2022/08/27 05:02:01;;;;;;;8.93;4.97;;;;;;;;;;5092213;28;20201;-79
2022/08/27 05:04:29;;;;;;;11.57;5.67;;;;;;;;;;5092722;28;20257;-79
2022/08/27 05:06:56;;;;;;;10.33;4.97;;;;;;;;;;5092658;28;20233;-79
2022/08/27 05:09:24;;;;;;;6.13;4.20;;;;;;;;;;5092414;28;20227;-78
2022/08/27 05:11:52;;;;;;;11.27;4.87;;;;;;;;;;5092600;28;20200;-78
2022/08/27 05:14:21;;;;;;;12.77;4.63;;;;;;;;;;5092514;28;20196;-78
2022/08/27 05:16:48;;;;;;;9.30;4.83;;;;;;;;;;5092045;28;20670;-79
2022/08/27 05:19:15;;;;;;;14.37;4.70;;;;;;;;;;5095305;28;20207;-78
2022/08/27 05:21:45;;;;;;;9.60;4.90;;;;;;;;;;5103823;28;20208;-78
2022/08/27 05:24:12;;;;;;;9.93;5.33;;;;;;;;;;5092504;28;20585;-78
2022/08/27 05:26:40;;;;;;;12.47;4.93;;;;;;;;;;5092461;28;20203;-78
2022/08/27 05:29:07;;;;;;;8.17;5.23;;;;;;;;;;5091267;28;20224;-78
2022/08/27 05:31:35;;;;;;;12.37;5.00;;;;;;;;;;5077737;28;20200;-78
2022/08/27 05:34:04;;;;;;;6.70;4.33;;;;;;;;;;5092234;28;20204;-78
2022/08/27 05:36:33;;;;;;;9.60;5.03;;;;;;;;;;5091859;28;20692;-78
2022/08/27 05:39:00;;;;;;;7.03;4.70;;;;;;;;;;5092285;28;20205;-78
2022/08/27 05:41:29;;;;;;;7.10;4.03;;;;;;;;;;5091632;28;20205;-79
2022/08/27 05:44:00;;;;;;;6.37;4.17;;;;;;;;;;5092085;28;20196;-80
2022/08/27 05:46:27;;;;;;;8.50;4.90;;;;;;;;;;5092105;28;20196;-78
2022/08/27 05:48:56;;;;;;;10.40;4.97;;;;;;;;;;5091831;28;20248;-78
2022/08/27 05:51:25;;;;;;;7.90;4.57;;;;;;;;;;5091908;28;20196;-78
2022/08/27 05:53:55;;;;;;;8.60;4.67;;;;;;;;;;5092074;28;20204;-78
2022/08/27 05:56:24;;;;;;;11.00;5.30;;;;;;;;;;5091473;28;20219;-78
2022/08/27 06:01:38;;;;;;;8.43;4.23;;;;;;;;;;5091768;28;20219;-78
2022/08/27 06:04:05;;;;;;;9.47;6.33;;;;;;;;;;5091573;28;20200;-78
2022/08/27 06:06:34;;;;;;;9.20;5.03;;;;;;;;;;5091257;28;20230;-78
2022/08/27 06:09:01;;;;;;;7.30;4.47;;;;;;;;;;5090877;28;20665;-78
2022/08/27 06:11:28;;;;;;;9.57;4.80;;;;;;;;;;5091366;28;20572;-79
2022/08/27 06:13:55;;;;;;;8.53;5.07;;;;;;;;;;5091822;28;20197;-78
2022/08/27 06:16:23;;;;;;;12.50;5.10;;;;;;;;;;5091361;28;20689;-79
2022/08/27 06:18:51;;;;;;;13.03;4.63;;;;;;;;;;5091012;28;20208;-79
2022/08/27 06:21:19;;;;;;;13.20;5.10;;;;;;;;;;5091456;28;20196;-80
2022/08/27 06:23:46;;;;;;;6.70;4.63;;;;;;;;;;5091158;28;20732;-78
2022/08/27 06:26:15;;;;;;;13.40;4.87;;;;;;;;;;5091115;28;20200;-78
2022/08/27 06:28:43;;;;;;;9.63;5.30;;;;;;;;;;5090892;28;20207;-78
2022/08/27 06:31:13;;;;;;;15.50;5.03;;;;;;;;;;5090996;28;20224;-78
2022/08/27 06:33:40;;;;;;;9.97;4.27;;;;;;;;;;5091168;28;20283;-78
2022/08/27 06:36:13;;;;;;;10.30;5.50;;;;;;;;;;5090654;28;20203;-78
2022/08/27 06:38:41;;;;;;;9.27;4.90;;;;;;;;;;5090781;28;20568;-78
2022/08/27 06:41:09;;;;;;;7.73;4.03;;;;;;;;;;5090191;28;20303;-78
2022/08/27 06:43:37;;;;;;;7.80;4.00;;;;;;;;;;5090994;28;20203;-78
2022/08/27 06:46:05;;;;;;;11.00;3.97;;;;;;;;;;5090855;28;20667;-78
2022/08/27 06:48:32;;;;;;;8.30;4.00;;;;;;;;;;5096293;28;20633;-78
2022/08/27 06:51:00;;;;;;;9.70;3.90;;;;;;;;;;5098918;28;20269;-78
2022/08/27 06:53:28;;;;;;;14.50;4.07;;;;;;;;;;5090789;28;20585;-78
2022/08/27 06:55:55;;;;;;;18.40;4.73;;;;;;;;;;5090726;28;20277;-78
2022/08/27 06:58:22;;;;;;;10.67;4.17;;;;;;;;;;5090587;28;20207;-78
2022/08/27 07:00:50;;;;;;;8.20;4.33;;;;;;;;;;5089164;28;20200;-78
2022/08/27 07:03:16;;;;;;;9.23;4.60;;;;;;;;;;5083869;28;20219;-78
2022/08/27 07:05:43;;;;;;;11.33;4.77;;;;;;;;;;5090440;28;20192;-78
2022/08/27 07:08:10;;;;;;;8.80;3.90;;;;;;;;;;5090181;28;20592;-78
2022/08/27 07:10:38;;;;;;;9.93;4.83;;;;;;;;;;5071931;28;20666;-78
2022/08/27 07:13:05;;;;;;;7.97;4.20;;;;;;;;;;5090571;28;20620;-78
2022/08/27 07:15:32;;;;;;;9.40;4.60;;;;;;;;;;5090265;28;20698;-79
2022/08/27 07:17:59;;;;;;;9.43;4.63;;;;;;;;;;5089783;28;20682;-79
2022/08/27 07:20:26;;;;;;;12.83;4.17;;;;;;;;;;5090263;28;20207;-78
2022/08/27 07:22:57;;;;;;;7.67;4.10;;;;;;;;;;5090427;28;20196;-78
2022/08/27 07:25:25;;;;;;;8.20;4.73;;;;;;;;;;5090419;28;20227;-78
2022/08/27 07:27:53;;;;;;;10.33;3.70;;;;;;;;;;5090406;28;20222;-78
2022/08/27 07:30:20;;;;;;;10.57;4.57;;;;;;;;;;5089646;28;20239;-78
2022/08/27 07:32:47;;;;;;;8.50;4.83;;;;;;;;;;5090706;28;20196;-78
2022/08/27 07:35:14;;;;;;;5.53;4.23;;;;;;;;;;5089561;28;20201;-78
2022/08/27 07:37:41;;;;;;;8.07;3.93;;;;;;;;;;5090135;28;20201;-79
2022/08/27 07:40:11;;;;;;;11.13;4.17;;;;;;;;;;5090206;28;20272;-79
2022/08/27 07:45:23;;;;;;;15.63;4.63;;;;;;;;;;5090288;28;20582;-78
2022/08/27 07:47:50;;;;;;;8.90;4.07;;;;;;;;;;5090392;28;20200;-78
2022/08/27 07:50:17;;;;;;;7.90;3.77;;;;;;;;;;5075465;28;20232;-79
2022/08/27 07:52:44;;;;;;;11.80;4.03;;;;;;;;;;5091858;28;20201;-78
2022/08/27 07:55:11;;;;;;;6.13;3.83;;;;;;;;;;5093558;28;20714;-79
2022/08/27 07:57:38;;;;;;;5.90;3.80;;;;;;;;;;5094362;28;20227;-79
2022/08/27 08:00:07;;;;;;;12.83;4.07;;;;;;;;;;5093814;28;20207;-78
2022/08/27 08:02:36;;;;;;;9.50;4.00;;;;;;;;;;5093964;28;20275;-79
2022/08/27 08:05:03;;;;;;;12.30;3.80;;;;;;;;;;5093954;28;20208;-78
2022/08/27 08:07:30;;;;;;;8.73;3.90;;;;;;;;;;5092752;28;20287;-78
2022/08/27 08:09:58;;;;;;;8.43;4.17;;;;;;;;;;5091672;28;20227;-79
2022/08/27 08:12:25;;;;;;;12.80;3.60;;;;;;;;;;5094179;28;20204;-78
2022/08/27 08:14:54;;;;;;;6.57;3.73;;;;;;;;;;5093306;28;20197;-80
2022/08/27 08:17:21;;;;;;;18.00;4.37;;;;;;;;;;5094112;28;20256;-78
2022/08/27 08:19:52;;;;;;;17.23;4.10;;;;;;;;;;5093599;28;20213;-79
2022/08/27 08:22:19;;;;;;;12.17;4.33;;;;;;;;;;5093307;28;20671;-79
2022/08/27 08:24:46;;;;;;;9.03;3.90;;;;;;;;;;5107608;28;20215;-79
2022/08/27 08:27:14;;;;;;;11.47;3.87;;;;;;;;;;5093558;28;20208;-80
2022/08/27 08:29:41;;;;;;;9.33;3.90;;;;;;;;;;5093238;28;20216;-80
2022/08/27 08:32:08;;;;;;;6.27;3.60;;;;;;;;;;5093134;28;20196;-80
2022/08/27 08:34:35;;;;;;;10.10;4.33;;;;;;;;;;5093401;28;20205;-79
2022/08/27 08:37:04;;;;;;;12.90;4.57;;;;;;;;;;5092648;28;20200;-79
2022/08/27 08:39:31;;;;;;;9.63;3.93;;;;;;;;;;5093472;28;20211;-78
2022/08/27 08:42:00;;;;;;;6.07;3.30;;;;;;;;;;5093047;28;20663;-79
2022/08/27 08:44:31;;;;;;;11.00;3.50;;;;;;;;;;5093301;28;20607;-79
2022/08/27 08:47:02;;;;;;;12.55;5.13;;;;;;;;;;5092806;28;20196;-78
2022/08/27 08:49:47;;;;;;;6.93;4.00;;;;;;;;;;5093252;28;20228;-79
2022/08/27 08:52:28;;;;;;;8.75;4.53;;;;;;;;;;5091991;28;20200;-79
2022/08/27 08:54:59;;;;;;;9.73;6.53;;;;;;;;;;5092989;28;20690;-80
2022/08/27 08:57:29;;;;;;;10.57;4.68;;;;;;;;;;5097914;28;20207;-78
2022/08/27 09:00:00;;;;;;;23.00;4.47;;;;;;;;;;5100997;28;20204;-80
2022/08/27 09:02:27;;;;;;;14.15;4.10;;;;;;;;;;5107123;28;20196;-80
2022/08/27 09:04:54;;;;;;;13.13;4.50;;;;;;;;;;5091943;28;20200;-80
2022/08/27 09:07:27;;;;;;;8.52;3.95;;;;;;;;;;5092776;28;20597;-79
2022/08/27 09:10:00;;;;;;;10.77;4.25;;;;;;;;;;5091536;28;20256;-79
2022/08/27 09:12:29;;;;;;;10.38;4.45;;;;;;;;;;5089075;28;20200;-79
2022/08/27 09:14:59;;;;;;;7.00;3.67;;;;;;;;;;5092484;28;20226;-79
2022/08/27 09:17:26;;;;;;;16.85;4.53;;;;;;;;;;5092696;28;20228;-79
2022/08/27 09:19:53;;;;;;;14.43;3.75;;;;;;;;;;5092414;28;20203;-80
2022/08/27 09:22:27;;;;;;;15.50;4.22;;;;;;;;;;5092577;28;20200;-80
2022/08/27 09:25:00;;;;;;;15.48;4.72;;;;;;;;;;5079039;28;20748;-81
2022/08/27 09:27:27;;;;;;;15.82;4.90;;;;;;;;;;5092468;28;20620;-81
2022/08/27 09:29:56;;;;;;;13.73;5.28;;;;;;;;;;5091795;28;20231;-82
2022/08/27 09:32:24;;;;;;;17.58;5.13;;;;;;;;;;5092556;28;20200;-83
2022/08/27 09:34:51;;;;;;;14.98;6.47;;;;;;;;;;5092368;28;20280;-82
2022/08/27 09:37:20;;;;;;;12.60;5.07;;;;;;;;;;5091502;28;20246;-83
2022/08/27 09:39:53;;;;;;;17.85;5.20;;;;;;;;;;5091586;28;20232;-83
2022/08/27 09:42:28;;;;;;;13.82;5.15;;;;;;;;;;5092812;28;20208;-82
2022/08/27 09:44:55;;;;;;;16.60;5.72;;;;;;;;;;5091664;28;20200;-83
2022/08/27 09:47:25;;;;;;;19.52;5.50;;;;;;;;;;5092035;28;20295;-81
2022/08/27 09:50:04;;;;;;;20.42;7.30;;;;;;;;;;5091301;28;20231;-82
2022/08/27 09:52:33;;;;;;;12.30;4.82;;;;;;;;;;5092128;28;20207;-83
2022/08/27 09:55:01;;;;;;;14.13;5.32;;;;;;;;;;5091534;28;20239;-83
2022/08/27 09:57:34;;;;;;;15.52;4.60;;;;;;;;;;5091501;28;20200;-83
2022/08/27 10:00:01;;;;;;;8.25;4.47;;;;;;;;;;5091278;28;20212;-83
2022/08/27 10:02:28;;;;;;;9.48;4.63;;;;;;;;;;5091297;28;20212;-85
2022/08/27 10:04:58;;;;;;;11.02;4.65;;;;;;;;;;5092079;28;20205;-82
2022/08/27 10:07:41;;;;;;;13.35;5.05;;;;;;;;;;5091344;28;20258;-81
2022/08/27 10:10:14;;;;;;;10.98;4.80;;;;;;;;;;5091775;28;20228;-86
2022/08/27 10:12:53;;;;;;;15.38;4.35;;;;;;;;;;5091913;28;20211;-81
2022/08/27 10:15:20;;;;;;;11.73;4.47;;;;;;;;;;5091397;28;20200;-82
2022/08/27 10:17:54;;;;;;;5.75;4.05;;;;;;;;;;5091565;28;20200;-83
2022/08/27 10:20:25;;;;;;;28.27;6.93;;;;;;;;;;5091174;28;20204;-82
2022/08/27 10:22:58;;;;;;;15.63;5.13;;;;;;;;;;5091299;28;20197;-82
2022/08/27 10:25:37;;;;;;;16.95;5.85;;;;;;;;;;5090765;28;20207;-82
2022/08/27 10:28:14;;;;;;;6.72;4.50;;;;;;;;;;5090866;28;20678;-83
2022/08/27 10:30:52;;;;;;;7.45;4.47;;;;;;;;;;5090855;28;20231;-80
2022/08/27 10:33:22;;;;;;;12.25;4.32;;;;;;;;;;5077693;28;20204;-83
2022/08/27 10:35:57;;;;;;;11.48;4.85;;;;;;;;;;5090312;28;20686;-83
2022/08/27 10:38:31;;;;;;;13.13;4.70;;;;;;;;;;5083191;28;20586;-83
2022/08/27 10:41:11;;;;;;;8.65;3.63;;;;;;;;;;5090813;28;20200;-82
2022/08/27 10:44:00;;;;;;;9.13;3.90;;;;;;;;;;5077520;28;20192;-82
2022/08/27 10:46:47;;;;;;;8.98;4.63;;;;;;;;;;5090106;28;20227;-83
2022/08/27 10:49:18;;;;;;;11.60;4.30;;;;;;;;;;5090319;28;20223;-83
2022/08/27 10:51:49;;;;;;;12.18;4.10;;;;;;;;;;5090276;28;20227;-83
2022/08/27 10:54:22;;;;;;;9.25;4.47;;;;;;;;;;5090322;28;20208;-83
2022/08/27 10:56:56;;;;;;;15.85;5.03;;;;;;;;;;5090232;28;20208;-82
2022/08/27 10:59:29;;;;;;;6.22;4.65;;;;;;;;;;5077878;28;20227;-83
2022/08/27 11:02:02;;;;;;;10.82;4.20;;;;;;;;;;5090455;28;20207;-83
2022/08/27 11:04:31;;;;;;;14.95;5.75;;;;;;;;;;5090368;28;20242;-83
2022/08/27 11:07:01;;;;;;;9.05;4.05;;;;;;;;;;5090374;28;20207;-83
2022/08/27 11:09:35;;;;;;;16.35;4.93;;;;;;;;;;5076824;28;20203;-83
2022/08/27 11:12:08;;;;;;;8.85;4.80;;;;;;;;;;5090151;28;20227;-82
2022/08/27 11:14:37;;;;;;;8.88;4.72;;;;;;;;;;5090329;28;20257;-83
2022/08/27 11:17:07;;;;;;;9.68;4.05;;;;;;;;;;5090175;28;20204;-83
2022/08/27 11:19:44;;;;;;;10.35;3.80;;;;;;;;;;5089918;28;20196;-84
2022/08/27 11:22:16;;;;;;;12.98;4.32;;;;;;;;;;5090480;28;20200;-83
2022/08/27 11:24:47;;;;;;;8.93;4.95;;;;;;;;;;5090381;28;20203;-83
2022/08/27 11:27:21;;;;;;;8.43;4.28;;;;;;;;;;5091658;28;20208;-83
2022/08/27 11:29:54;;;;;;;9.27;3.78;;;;;;;;;;5109194;28;20245;-83
2022/08/27 11:32:27;;;;;;;9.45;3.83;;;;;;;;;;5094365;28;20725;-83
2022/08/27 11:34:57;;;;;;;16.75;4.38;;;;;;;;;;5093617;28;20214;-83
2022/08/27 11:37:42;;;;;;;12.65;4.68;;;;;;;;;;5094179;28;20697;-84
2022/08/27 11:40:25;;;;;;;12.65;4.97;;;;;;;;;;5094121;28;20200;-83
2022/08/27 11:42:55;;;;;;;9.63;4.28;;;;;;;;;;5109342;28;20214;-82
2022/08/27 11:45:29;;;;;;;7.45;4.00;;;;;;;;;;5094510;28;20199;-82
2022/08/27 11:47:58;;;;;;;10.50;4.30;;;;;;;;;;5094200;28;20269;-83
2022/08/27 11:50:27;;;;;;;15.27;4.35;;;;;;;;;;5093533;28;20220;-84
2022/08/27 11:52:57;;;;;;;10.02;4.97;;;;;;;;;;5089611;28;20295;-83
2022/08/27 11:55:28;;;;;;;11.27;4.15;;;;;;;;;;5094050;28;20304;-83
2022/08/27 11:58:24;;;;;;;9.60;4.28;;;;;;;;;;5094296;28;20207;-83
2022/08/27 12:00:52;;;;;;;14.18;4.80;;;;;;;;;;5094496;28;20235;-84
2022/08/27 12:03:30;;;;;;;14.82;4.13;;;;;;;;;;5093988;28;20277;-83
2022/08/27 12:06:18;;;;;;;7.07;3.85;;;;;;;;;;5093459;28;20257;-83
2022/08/27 12:08:45;;;;;;;9.85;4.30;;;;;;;;;;5093317;28;20291;-83
2022/08/27 12:11:20;;;;;;;12.80;4.78;;;;;;;;;;5093715;28;20230;-83
2022/08/27 12:13:55;;;;;;;14.95;4.57;;;;;;;;;;5093647;28;20264;-83
2022/08/27 12:16:29;;;;;;;12.60;4.85;;;;;;;;;;5080349;28;20195;-83
2022/08/27 12:19:20;;;;;;;7.88;4.35;;;;;;;;;;5075716;28;20204;-83
2022/08/27 12:21:55;;;;;;;12.25;4.82;;;;;;;;;;5093630;28;20257;-82
2022/08/27 12:24:50;;;;;;;15.50;4.82;;;;;;;;;;5093321;28;20203;-83
2022/08/27 12:27:30;;;;;;;8.98;4.32;;;;;;;;;;5051910;28;20200;-83
2022/08/27 12:30:01;;;;;;;13.43;6.40;;;;;;;;;;5093669;28;20207;-83
2022/08/27 12:32:30;;;;;;;10.48;5.30;;;;;;;;;;5093129;28;20311;-83
2022/08/27 12:35:08;;;;;;;16.77;4.95;;;;;;;;;;5093165;28;20678;-83
2022/08/27 12:37:37;;;;;;;12.40;4.70;;;;;;;;;;5093509;28;20238;-83
2022/08/27 12:40:10;;;;;;;13.40;4.47;;;;;;;;;;5092678;28;20196;-83
2022/08/27 12:42:37;;;;;;;13.20;4.72;;;;;;;;;;5093199;28;20216;-83
2022/08/27 12:45:07;;;;;;;10.35;4.53;;;;;;;;;;5092597;28;20634;-83
2022/08/27 12:47:39;;;;;;;11.93;4.50;;;;;;;;;;5093692;28;20658;-83
2022/08/27 12:50:07;;;;;;;12.73;4.53;;;;;;;;;;5091511;28;20204;-82
2022/08/27 12:52:49;;;;;;;17.30;7.03;;;;;;;;;;5092853;28;20721;-82
2022/08/27 12:55:23;;;;;;;8.27;4.72;;;;;;;;;;5090399;28;20232;-80
2022/08/27 12:57:55;;;;;;;11.82;4.10;;;;;;;;;;5092820;28;20204;-82
2022/08/27 13:00:24;;;;;;;12.43;4.50;;;;;;;;;;5092431;28;20200;-82
2022/08/27 13:03:16;;;;;;;8.30;5.20;;;;;;;;;;5092894;28;20209;-80
2022/08/27 13:05:45;;;;;;;15.45;4.68;;;;;;;;;;5092855;28;20205;-80
2022/08/27 13:08:20;;;;;;;11.55;4.43;;;;;;;;;;5092756;28;20204;-79
2022/08/27 13:10:48;;;;;;;9.52;4.53;;;;;;;;;;5091174;28;20204;-80
2022/08/27 13:13:17;;;;;;;18.17;4.60;;;;;;;;;;5084594;28;20587;-82
2022/08/27 13:15:48;;;;;;;11.10;4.38;;;;;;;;;;5091994;28;20208;-82
2022/08/27 13:18:16;;;;;;;8.02;4.47;;;;;;;;;;5091867;28;20212;-82
2022/08/27 13:20:43;;;;;;;10.15;4.88;;;;;;;;;;5091499;28;20204;-81
2022/08/27 13:23:14;;;;;;;8.45;3.92;;;;;;;;;;5083092;28;20216;-81
2022/08/27 13:25:41;;;;;;;11.43;4.78;;;;;;;;;;5092024;28;20606;-82
2022/08/27 13:28:11;;;;;;;9.30;4.53;;;;;;;;;;5092153;28;20196;-84
2022/08/27 13:30:40;;;;;;;17.30;5.90;;;;;;;;;;5091846;28;20228;-82
2022/08/27 13:33:21;;;;;;;9.25;4.40;;;;;;;;;;5089725;28;20196;-81
2022/08/27 13:35:50;;;;;;;11.50;4.50;;;;;;;;;;5092120;28;20204;-84
2022/08/27 13:38:17;;;;;;;18.33;5.38;;;;;;;;;;5106760;28;20204;-82
2022/08/27 13:40:54;;;;;;;8.98;4.22;;;;;;;;;;5091787;28;20649;-85
2022/08/27 13:43:30;;;;;;;15.25;4.85;;;;;;;;;;5091322;28;20196;-85
2022/08/27 13:45:58;;;;;;;17.45;4.60;;;;;;;;;;5091724;28;20208;-84
2022/08/27 13:48:27;;;;;;;10.57;4.05;;;;;;;;;;5073453;28;20204;-85
2022/08/27 13:50:57;;;;;;;11.68;4.55;;;;;;;;;;5090311;28;20196;-85
2022/08/27 13:56:11;;;;;;;21.15;4.60;;;;;;;;;;5080507;28;20297;-83
2022/08/27 13:58:38;;;;;;;15.95;5.25;;;;;;;;;;5091498;28;20598;-83
2022/08/27 14:01:10;;;;;;;7.88;4.13;;;;;;;;;;5091194;28;20204;-85
2022/08/27 14:03:50;;;;;;;13.50;4.35;;;;;;;;;;5091819;28;20208;-84
2022/08/27 14:06:24;;;;;;;10.00;4.53;;;;;;;;;;5091239;28;20204;-83
2022/08/27 14:08:51;;;;;;;12.45;5.43;;;;;;;;;;5091100;28;20253;-85
2022/08/27 14:11:23;;;;;;;7.75;4.55;;;;;;;;;;5091239;28;20220;-84
2022/08/27 14:13:50;;;;;;;9.82;4.93;;;;;;;;;;5091263;28;20568;-84
2022/08/27 14:16:24;;;;;;;16.67;4.40;;;;;;;;;;5091233;28;20629;-84
2022/08/27 14:18:55;;;;;;;11.90;4.88;;;;;;;;;;5090447;28;20642;-84
2022/08/27 14:21:21;;;;;;;12.50;4.78;;;;;;;;;;5090578;28;20208;-90
2022/08/27 14:23:49;;;;;;;13.95;4.45;;;;;;;;;;5091477;28;20200;-83
2022/08/27 14:26:17;;;;;;;9.63;5.00;;;;;;;;;;5090610;28;20279;-84
2022/08/27 14:28:45;;;;;;;17.55;5.22;;;;;;;;;;5091161;28;20201;-83
2022/08/27 14:31:12;;;;;;;14.50;4.20;;;;;;;;;;5090403;28;20222;-83
2022/08/27 14:33:39;;;;;;;7.22;3.90;;;;;;;;;;5091057;28;20200;-82
2022/08/27 14:36:09;;;;;;;10.65;4.50;;;;;;;;;;5090547;28;20617;-83
2022/08/27 14:38:38;;;;;;;8.23;4.38;;;;;;;;;;5090734;28;20200;-83
2022/08/27 14:41:04;;;;;;;9.77;4.10;;;;;;;;;;5090633;28;20575;-82
2022/08/27 14:43:31;;;;;;;14.80;5.43;;;;;;;;;;5097142;28;20199;-83
2022/08/27 14:45:58;;;;;;;12.45;5.13;;;;;;;;;;5097596;28;20215;-83
2022/08/27 14:48:29;;;;;;;14.70;4.50;;;;;;;;;;5090505;28;20258;-83
2022/08/27 14:50:56;;;;;;;11.88;4.57;;;;;;;;;;5090128;28;20750;-83
2022/08/27 14:53:25;;;;;;;6.78;4.28;;;;;;;;;;5090475;28;20220;-83
2022/08/27 14:55:53;;;;;;;8.40;4.78;;;;;;;;;;5076724;28;20229;-83
2022/08/27 14:58:20;;;;;;;13.23;4.38;;;;;;;;;;5090498;28;20207;-84